sensor_id;sensor_type;location;lat;lon;timestamp;pressure;altitude;pressure_sealevel;temperature;humidity
13015;BME280;6573;57.696;11.950;2022-12-07T00:01:43;100649.44;;;0.19;100.00
13015;BME280;6573;57.696;11.950;2022-12-07T00:04:14;100667.97;;;0.31;100.00
13015;BME280;6573;57.696;11.950;2022-12-07T00:06:44;100677.59;;;0.35;100.00
13015;BME280;6573;57.696;11.950;2022-12-07T00:09:15;100667.25;;;0.35;100.00
13015;BME280;6573;57.696;11.950;2022-12-07T00:11:45;100667.38;;;0.38;100.00
13015;BME280;6573;57.696;11.950;2022-12-07T00:14:16;100667.38;;;0.38;100.00
13015;BME280;6573;57.696;11.950;2022-12-07T00:16:48;100654.44;;;0.38;100.00
13015;BME280;6573;57.696;11.950;2022-12-07T00:19:17;100647.78;;;0.44;100.00
13015;BME280;6573;57.696;11.950;2022-12-07T00:21:46;100646.38;;;0.29;100.00
13015;BME280;6573;57.696;11.950;2022-12-07T00:24:14;100656.22;;;0.39;100.00
13015;BME280;6573;57.696;11.950;2022-12-07T00:26:42;100664.09;;;0.42;100.00
13015;BME280;6573;57.696;11.950;2022-12-07T00:29:15;100657.03;;;0.38;100.00
13015;BME280;6573;57.696;11.950;2022-12-07T00:31:45;100635.09;;;0.27;100.00
13015;BME280;6573;57.696;11.950;2022-12-07T00:34:15;100648.31;;;0.36;100.00
13015;BME280;6573;57.696;11.950;2022-12-07T00:36:44;100635.19;;;0.30;100.00
13015;BME280;6573;57.696;11.950;2022-12-07T00:39:12;100664.16;;;0.45;100.00
13015;BME280;6573;57.696;11.950;2022-12-07T00:41:41;100664.16;;;0.45;100.00
13015;BME280;6573;57.696;11.950;2022-12-07T00:44:09;100657.44;;;0.50;100.00
13015;BME280;6573;57.696;11.950;2022-12-07T00:46:38;100667.59;;;0.44;100.00
13015;BME280;6573;57.696;11.950;2022-12-07T00:49:08;100664.84;;;0.39;100.00
13015;BME280;6573;57.696;11.950;2022-12-07T00:51:39;100639.38;;;0.26;100.00
13015;BME280;6573;57.696;11.950;2022-12-07T00:54:08;100654.03;;;0.51;100.00
13015;BME280;6573;57.696;11.950;2022-12-07T00:56:36;100649.53;;;0.45;100.00
13015;BME280;6573;57.696;11.950;2022-12-07T00:59:05;100655.47;;;0.43;100.00
13015;BME280;6573;57.696;11.950;2022-12-07T01:01:35;100649.88;;;0.31;100.00
13015;BME280;6573;57.696;11.950;2022-12-07T01:04:05;100649.88;;;0.31;100.00
13015;BME280;6573;57.696;11.950;2022-12-07T01:06:35;100639.34;;;0.25;100.00
13015;BME280;6573;57.696;11.950;2022-12-07T01:09:04;100648.22;;;0.33;100.00
13015;BME280;6573;57.696;11.950;2022-12-07T01:11:33;100651.72;;;0.35;100.00
13015;BME280;6573;57.696;11.950;2022-12-07T01:14:02;100646.47;;;0.32;100.00
13015;BME280;6573;57.696;11.950;2022-12-07T01:16:33;100639.53;;;0.31;100.00
13015;BME280;6573;57.696;11.950;2022-12-07T01:19:02;100643.16;;;0.36;100.00
13015;BME280;6573;57.696;11.950;2022-12-07T01:21:33;100637.97;;;0.36;100.00
13015;BME280;6573;57.696;11.950;2022-12-07T01:24:09;100633.81;;;0.39;100.00
13015;BME280;6573;57.696;11.950;2022-12-07T01:26:38;100644.50;;;0.50;100.00
13015;BME280;6573;57.696;11.950;2022-12-07T01:29:06;100636.75;;;0.50;100.00
13015;BME280;6573;57.696;11.950;2022-12-07T01:31:35;100629.81;;;0.49;100.00
13015;BME280;6573;57.696;11.950;2022-12-07T01:34:03;100630.00;;;0.55;100.00
13015;BME280;6573;57.696;11.950;2022-12-07T01:36:36;100631.78;;;0.56;100.00
13015;BME280;6573;57.696;11.950;2022-12-07T01:39:07;100631.91;;;0.59;100.00
13015;BME280;6573;57.696;11.950;2022-12-07T01:41:39;100630.13;;;0.58;100.00
13015;BME280;6573;57.696;11.950;2022-12-07T01:44:17;100623.00;;;0.51;100.00
13015;BME280;6573;57.696;11.950;2022-12-07T01:46:46;100623.09;;;0.54;100.00
13015;BME280;6573;57.696;11.950;2022-12-07T01:49:18;100613.31;;;0.45;100.00
13015;BME280;6573;57.696;11.950;2022-12-07T01:51:51;100608.78;;;0.40;100.00
13015;BME280;6573;57.696;11.950;2022-12-07T01:54:22;100600.44;;;0.47;100.00
13015;BME280;6573;57.696;11.950;2022-12-07T01:56:51;100595.25;;;0.47;100.00
13015;BME280;6573;57.696;11.950;2022-12-07T01:59:24;100597.00;;;0.48;100.00
13015;BME280;6573;57.696;11.950;2022-12-07T02:01:54;100597.13;;;0.51;100.00
13015;BME280;6573;57.696;11.950;2022-12-07T02:04:23;100581.69;;;0.54;100.00
13015;BME280;6573;57.696;11.950;2022-12-07T02:06:53;100578.34;;;0.56;100.00
13015;BME280;6573;57.696;11.950;2022-12-07T02:09:23;100574.97;;;0.59;100.00
13015;BME280;6573;57.696;11.950;2022-12-07T02:11:52;100579.41;;;0.63;100.00
13015;BME280;6573;57.696;11.950;2022-12-07T02:14:22;100571.63;;;0.63;100.00
13015;BME280;6573;57.696;11.950;2022-12-07T02:17:10;100568.78;;;0.55;100.00
13015;BME280;6573;57.696;11.950;2022-12-07T02:20:16;100573.81;;;0.51;100.00
13015;BME280;6573;57.696;11.950;2022-12-07T02:23:15;100550.53;;;0.51;100.00
13015;BME280;6573;57.696;11.950;2022-12-07T02:26:11;100561.78;;;0.51;100.00
13015;BME280;6573;57.696;11.950;2022-12-07T02:29:00;100548.00;;;0.52;100.00
13015;BME280;6573;57.696;11.950;2022-12-07T02:31:36;100546.34;;;0.54;100.00
13015;BME280;6573;57.696;11.950;2022-12-07T02:34:09;100542.13;;;0.58;100.00
13015;BME280;6573;57.696;11.950;2022-12-07T02:36:43;100529.84;;;0.51;100.00
13015;BME280;6573;57.696;11.950;2022-12-07T02:39:17;100531.69;;;0.55;100.00
13015;BME280;6573;57.696;11.950;2022-12-07T02:41:50;100538.63;;;0.56;100.00
13015;BME280;6573;57.696;11.950;2022-12-07T02:44:24;100521.53;;;0.61;100.00
13015;BME280;6573;57.696;11.950;2022-12-07T02:46:56;100519.88;;;0.63;100.00
13015;BME280;6573;57.696;11.950;2022-12-07T02:49:27;100516.53;;;0.67;100.00
13015;BME280;6573;57.696;11.950;2022-12-07T02:51:57;100494.97;;;0.67;100.00
13015;BME280;6573;57.696;11.950;2022-12-07T02:54:26;100504.72;;;0.75;100.00
13015;BME280;6573;57.696;11.950;2022-12-07T02:56:59;100507.84;;;0.65;100.00
13015;BME280;6573;57.696;11.950;2022-12-07T02:59:38;100509.41;;;0.60;100.00
13015;BME280;6573;57.696;11.950;2022-12-07T03:02:16;100516.16;;;0.55;100.00
13015;BME280;6573;57.696;11.950;2022-12-07T03:04:52;100514.53;;;0.57;100.00
13015;BME280;6573;57.696;11.950;2022-12-07T03:07:29;100518.03;;;0.59;100.00
13015;BME280;6573;57.696;11.950;2022-12-07T03:10:09;100509.41;;;0.60;100.00
13015;BME280;6573;57.696;11.950;2022-12-07T03:12:47;100504.19;;;0.57;100.00
13015;BME280;6573;57.696;11.950;2022-12-07T03:15:28;100512.84;;;0.59;100.00
13015;BME280;6573;57.696;11.950;2022-12-07T03:18:01;100511.28;;;0.64;100.00
13015;BME280;6573;57.696;11.950;2022-12-07T03:20:31;100502.78;;;0.68;100.00
13015;BME280;6573;57.696;11.950;2022-12-07T03:23:05;100517.44;;;0.68;100.00
13015;BME280;6573;57.696;11.950;2022-12-07T03:25:39;100514.16;;;0.73;100.00
13015;BME280;6573;57.696;11.950;2022-12-07T03:28:10;100500.44;;;0.76;100.00
13015;BME280;6573;57.696;11.950;2022-12-07T03:30:47;100510.91;;;0.79;100.00
13015;BME280;6573;57.696;11.950;2022-12-07T03:33:19;100520.25;;;0.75;100.00
13015;BME280;6573;57.696;11.950;2022-12-07T03:35:52;100511.78;;;0.79;100.00
13015;BME280;6573;57.696;11.950;2022-12-07T03:38:29;100492.31;;;0.65;100.00
13015;BME280;6573;57.696;11.950;2022-12-07T03:41:01;100509.22;;;0.81;100.00
13015;BME280;6573;57.696;11.950;2022-12-07T03:43:36;100506.59;;;0.79;100.00
13015;BME280;6573;57.696;11.950;2022-12-07T03:46:17;100496.03;;;0.73;100.00
13015;BME280;6573;57.696;11.950;2022-12-07T03:48:55;100501.22;;;0.73;100.00
13015;BME280;6573;57.696;11.950;2022-12-07T03:51:27;100510.22;;;0.84;100.00
13015;BME280;6573;57.696;11.950;2022-12-07T03:54:02;100508.44;;;0.83;100.00
13015;BME280;6573;57.696;11.950;2022-12-07T03:56:38;100503.47;;;0.89;100.00
13015;BME280;6573;57.696;11.950;2022-12-07T03:59:08;100491.34;;;0.88;100.00
13015;BME280;6573;57.696;11.950;2022-12-07T04:01:38;100500.22;;;0.96;100.00
13015;BME280;6573;57.696;11.950;2022-12-07T04:04:09;100493.47;;;1.01;100.00
13015;BME280;6573;57.696;11.950;2022-12-07T04:06:37;100484.50;;;0.90;100.00
13015;BME280;6573;57.696;11.950;2022-12-07T04:09:06;100498.47;;;0.95;100.00
13015;BME280;6573;57.696;11.950;2022-12-07T04:11:34;100487.34;;;0.99;100.00
13015;BME280;6573;57.696;11.950;2022-12-07T04:14:02;100480.19;;;0.91;100.00
13015;BME280;6573;57.696;11.950;2022-12-07T04:16:52;100478.41;;;0.88;100.00
13015;BME280;6573;57.696;11.950;2022-12-07T04:19:23;100478.53;;;0.93;100.00
13015;BME280;6573;57.696;11.950;2022-12-07T04:21:52;100463.50;;;0.81;100.00
13015;BME280;6573;57.696;11.950;2022-12-07T04:24:20;100491.44;;;0.91;100.00
13015;BME280;6573;57.696;11.950;2022-12-07T04:26:49;100482.81;;;0.92;100.00
13015;BME280;6573;57.696;11.950;2022-12-07T04:29:18;100466.38;;;0.90;100.00
13015;BME280;6573;57.696;11.950;2022-12-07T04:31:47;100465.59;;;0.93;100.00
13015;BME280;6573;57.696;11.950;2022-12-07T04:34:18;100448.09;;;0.84;100.00
13015;BME280;6573;57.696;11.950;2022-12-07T04:36:47;100437.97;;;0.93;100.00
13015;BME280;6573;57.696;11.950;2022-12-07T04:39:19;100444.19;;;0.98;100.00
13015;BME280;6573;57.696;11.950;2022-12-07T04:41:48;100439.81;;;0.97;100.00
13015;BME280;6573;57.696;11.950;2022-12-07T04:44:18;100413.88;;;0.94;100.00
13015;BME280;6573;57.696;11.950;2022-12-07T04:46:47;100398.47;;;1.00;100.00
13015;BME280;6573;57.696;11.950;2022-12-07T04:49:18;100397.69;;;1.03;100.00
13015;BME280;6573;57.696;11.950;2022-12-07T04:51:46;100381.94;;;0.95;100.00
13015;BME280;6573;57.696;11.950;2022-12-07T04:54:15;100383.13;;;1.06;100.00
13015;BME280;6573;57.696;11.950;2022-12-07T04:56:44;100378.19;;;1.15;100.00
13015;BME280;6573;57.696;11.950;2022-12-07T04:59:14;100363.53;;;1.16;100.00
13015;BME280;6573;57.696;11.950;2022-12-07T05:01:43;100355.97;;;1.23;100.00
13015;BME280;6573;57.696;11.950;2022-12-07T05:04:13;100353.28;;;1.20;100.00
13015;BME280;6573;57.696;11.950;2022-12-07T05:06:44;100343.84;;;1.22;100.00
13015;BME280;6573;57.696;11.950;2022-12-07T05:09:12;100335.16;;;1.20;100.00
13015;BME280;6573;57.696;11.950;2022-12-07T05:11:41;100336.06;;;1.22;100.00
13015;BME280;6573;57.696;11.950;2022-12-07T05:14:12;100309.25;;;1.20;100.00
13015;BME280;6573;57.696;11.950;2022-12-07T05:16:43;100318.13;;;1.28;100.00
13015;BME280;6573;57.696;11.950;2022-12-07T05:19:11;100306.00;;;1.27;100.00
13015;BME280;6573;57.696;11.950;2022-12-07T05:21:40;100284.94;;;1.15;100.00
13015;BME280;6573;57.696;11.950;2022-12-07T05:24:12;100300.66;;;1.21;100.00
13015;BME280;6573;57.696;11.950;2022-12-07T05:26:42;100295.50;;;1.21;100.00
13015;BME280;6573;57.696;11.950;2022-12-07T05:29:11;100285.13;;;1.21;100.00
13015;BME280;6573;57.696;11.950;2022-12-07T05:31:40;100269.59;;;1.21;100.00
13015;BME280;6573;57.696;11.950;2022-12-07T05:34:09;100256.75;;;1.26;100.00
13015;BME280;6573;57.696;11.950;2022-12-07T05:36:37;100240.22;;;1.22;100.00
13015;BME280;6573;57.696;11.950;2022-12-07T05:39:06;100245.63;;;1.31;100.00
13015;BME280;6573;57.696;11.950;2022-12-07T05:41:37;100247.41;;;1.33;100.00
13015;BME280;6573;57.696;11.950;2022-12-07T05:44:22;100238.72;;;1.30;100.00
13015;BME280;6573;57.696;11.950;2022-12-07T05:46:51;100228.28;;;1.27;100.00
13015;BME280;6573;57.696;11.950;2022-12-07T05:49:19;100224.75;;;1.24;100.00
13015;BME280;6573;57.696;11.950;2022-12-07T05:51:48;100220.41;;;1.23;100.00
13015;BME280;6573;57.696;11.950;2022-12-07T05:54:16;100210.75;;;1.17;100.00
13015;BME280;6573;57.696;11.950;2022-12-07T05:56:46;100220.22;;;1.17;100.00
13015;BME280;6573;57.696;11.950;2022-12-07T05:59:15;100219.38;;;1.16;100.00
13015;BME280;6573;57.696;11.950;2022-12-07T06:01:56;100214.13;;;1.13;100.00
13015;BME280;6573;57.696;11.950;2022-12-07T06:04:27;100202.88;;;1.13;100.00
13015;BME280;6573;57.696;11.950;2022-12-07T06:06:55;100198.31;;;1.04;100.00
13015;BME280;6573;57.696;11.950;2022-12-07T06:09:25;100201.78;;;1.03;100.00
13015;BME280;6573;57.696;11.950;2022-12-07T06:11:56;100182.56;;;0.95;100.00
13015;BME280;6573;57.696;11.950;2022-12-07T06:14:42;100201.69;;;1.00;100.00
13015;BME280;6573;57.696;11.950;2022-12-07T06:17:11;100201.69;;;1.00;100.00
13015;BME280;6573;57.696;11.950;2022-12-07T06:19:40;100199.19;;;1.05;100.00
13015;BME280;6573;57.696;11.950;2022-12-07T06:22:09;100193.13;;;1.04;100.00
13015;BME280;6573;57.696;11.950;2022-12-07T06:24:39;100166.91;;;0.89;100.00
13015;BME280;6573;57.696;11.950;2022-12-07T06:27:09;100182.56;;;0.95;100.00
13015;BME280;6573;57.696;11.950;2022-12-07T06:29:38;100186.16;;;1.00;100.00
13015;BME280;6573;57.696;11.950;2022-12-07T06:32:06;100189.81;;;1.08;100.00
13015;BME280;6573;57.696;11.950;2022-12-07T06:34:35;100182.94;;;1.10;100.00
13015;BME280;6573;57.696;11.950;2022-12-07T06:37:04;100182.72;;;1.01;100.00
13015;BME280;6573;57.696;11.950;2022-12-07T06:39:33;100187.25;;;1.10;100.00
13015;BME280;6573;57.696;11.950;2022-12-07T06:42:01;100174.34;;;1.11;100.00
13015;BME280;6573;57.696;11.950;2022-12-07T06:44:38;100174.28;;;1.08;100.00
13015;BME280;6573;57.696;11.950;2022-12-07T06:47:07;100174.41;;;1.14;100.00
13015;BME280;6573;57.696;11.950;2022-12-07T06:49:56;100182.19;;;1.14;100.00
13015;BME280;6573;57.696;11.950;2022-12-07T06:52:25;100172.44;;;1.04;100.00
13015;BME280;6573;57.696;11.950;2022-12-07T06:54:53;100168.22;;;1.08;100.00
13015;BME280;6573;57.696;11.950;2022-12-07T06:57:22;100164.97;;;1.16;100.00
13015;BME280;6573;57.696;11.950;2022-12-07T06:59:52;100178.16;;;1.25;100.00
13015;BME280;6573;57.696;11.950;2022-12-07T07:02:20;100174.72;;;1.26;100.00
13015;BME280;6573;57.696;11.950;2022-12-07T07:04:49;100181.56;;;1.24;100.00
13015;BME280;6573;57.696;11.950;2022-12-07T07:07:17;100178.16;;;1.25;100.00
13015;BME280;6573;57.696;11.950;2022-12-07T07:09:46;100172.00;;;1.22;100.00
13015;BME280;6573;57.696;11.950;2022-12-07T07:12:14;100176.38;;;1.24;100.00
13015;BME280;6573;57.696;11.950;2022-12-07T07:14:42;100179.16;;;1.32;100.00
13015;BME280;6573;57.696;11.950;2022-12-07T07:17:12;100174.72;;;1.26;100.00
13015;BME280;6573;57.696;11.950;2022-12-07T07:19:41;100173.09;;;1.31;100.00
13015;BME280;6573;57.696;11.950;2022-12-07T07:22:09;100186.75;;;1.24;100.00
13015;BME280;6573;57.696;11.950;2022-12-07T07:24:38;100153.56;;;1.08;100.00
13015;BME280;6573;57.696;11.950;2022-12-07T07:27:06;100188.50;;;1.25;100.00
13015;BME280;6573;57.696;11.950;2022-12-07T07:29:38;100187.50;;;1.20;100.00
13015;BME280;6573;57.696;11.950;2022-12-07T07:32:06;100178.78;;;1.17;100.00
13015;BME280;6573;57.696;11.950;2022-12-07T07:34:36;100179.59;;;1.14;100.00
13015;BME280;6573;57.696;11.950;2022-12-07T07:37:05;100182.34;;;1.22;100.00
13015;BME280;6573;57.696;11.950;2022-12-07T07:39:34;100186.69;;;1.21;100.00
13015;BME280;6573;57.696;11.950;2022-12-07T07:42:03;100186.69;;;1.21;100.00
13015;BME280;6573;57.696;11.950;2022-12-07T07:44:31;100188.22;;;1.13;100.00
13015;BME280;6573;57.696;11.950;2022-12-07T07:47:01;100188.22;;;1.13;100.00
13015;BME280;6573;57.696;11.950;2022-12-07T07:49:29;100200.38;;;1.17;100.00
13015;BME280;6573;57.696;11.950;2022-12-07T07:51:59;100207.25;;;1.15;100.00
13015;BME280;6573;57.696;11.950;2022-12-07T07:54:28;100208.22;;;1.19;100.00
13015;BME280;6573;57.696;11.950;2022-12-07T07:56:58;100212.44;;;1.15;100.00
13015;BME280;6573;57.696;11.950;2022-12-07T07:59:27;100201.97;;;1.12;100.00
13015;BME280;6573;57.696;11.950;2022-12-07T08:01:56;100218.50;;;1.16;100.00
13015;BME280;6573;57.696;11.950;2022-12-07T08:04:24;100210.44;;;1.05;100.00
13015;BME280;6573;57.696;11.950;2022-12-07T08:06:52;100211.53;;;1.13;100.00
13015;BME280;6573;57.696;11.950;2022-12-07T08:09:22;100217.59;;;1.15;100.00
13015;BME280;6573;57.696;11.950;2022-12-07T08:11:51;100220.88;;;1.08;100.00
13015;BME280;6573;57.696;11.950;2022-12-07T08:14:19;100226.16;;;1.11;100.00
13015;BME280;6573;57.696;11.950;2022-12-07T08:16:50;100220.22;;;1.17;100.00
13015;BME280;6573;57.696;11.950;2022-12-07T08:19:19;100209.06;;;1.19;100.00
13015;BME280;6573;57.696;11.950;2022-12-07T08:21:47;100186.06;;;0.97;100.00
13015;BME280;6573;57.696;11.950;2022-12-07T08:24:16;100224.22;;;1.04;100.00
13015;BME280;6573;57.696;11.950;2022-12-07T08:26:45;100227.75;;;1.06;100.00
13015;BME280;6573;57.696;11.950;2022-12-07T08:29:14;100224.16;;;1.01;100.00
13015;BME280;6573;57.696;11.950;2022-12-07T08:31:42;100239.69;;;1.01;100.00
13015;BME280;6573;57.696;11.950;2022-12-07T08:34:11;100224.06;;;0.98;100.00
13015;BME280;6573;57.696;11.950;2022-12-07T08:36:41;100231.06;;;1.02;100.00
13015;BME280;6573;57.696;11.950;2022-12-07T08:39:09;100245.78;;;1.03;100.00
13015;BME280;6573;57.696;11.950;2022-12-07T08:41:59;100232.63;;;0.94;100.00
13015;BME280;6573;57.696;11.950;2022-12-07T08:44:27;100256.06;;;1.00;100.00
13015;BME280;6573;57.696;11.950;2022-12-07T08:46:59;100223.84;;;0.89;100.00
13015;BME280;6573;57.696;11.950;2022-12-07T08:49:35;100249.84;;;0.94;100.00
13015;BME280;6573;57.696;11.950;2022-12-07T08:52:05;100275.00;;;0.99;100.00
13015;BME280;6573;57.696;11.950;2022-12-07T08:54:35;100282.72;;;0.96;100.00
13015;BME280;6573;57.696;11.950;2022-12-07T08:57:06;100271.16;;;0.84;100.00
13015;BME280;6573;57.696;11.950;2022-12-07T08:59:36;100291.16;;;0.89;100.00
13015;BME280;6573;57.696;11.950;2022-12-07T09:02:05;100295.66;;;0.96;100.00
13015;BME280;6573;57.696;11.950;2022-12-07T09:04:34;100298.06;;;0.90;100.00
13015;BME280;6573;57.696;11.950;2022-12-07T09:07:03;100286.00;;;0.89;100.00
13015;BME280;6573;57.696;11.950;2022-12-07T09:09:32;100315.47;;;0.94;100.00
13015;BME280;6573;57.696;11.950;2022-12-07T09:12:04;100313.03;;;1.00;100.00
13015;BME280;6573;57.696;11.950;2022-12-07T09:14:34;100318.97;;;0.96;100.00
13015;BME280;6573;57.696;11.950;2022-12-07T09:17:05;100310.44;;;1.00;100.00
13015;BME280;6573;57.696;11.950;2022-12-07T09:19:34;100324.22;;;0.99;100.00
13015;BME280;6573;57.696;11.950;2022-12-07T09:22:03;100326.47;;;0.87;100.00
13015;BME280;6573;57.696;11.950;2022-12-07T09:24:32;100326.44;;;0.86;100.00
13015;BME280;6573;57.696;11.950;2022-12-07T09:27:01;100350.03;;;0.96;100.00
13015;BME280;6573;57.696;11.950;2022-12-07T09:29:29;100351.53;;;0.88;100.00
13015;BME280;6573;57.696;11.950;2022-12-07T09:31:59;100354.31;;;0.94;100.00
13015;BME280;6573;57.696;11.950;2022-12-07T09:34:37;100365.63;;;0.99;100.00
13015;BME280;6573;57.696;11.950;2022-12-07T09:37:06;100380.31;;;0.99;100.00
13015;BME280;6573;57.696;11.950;2022-12-07T09:39:37;100381.19;;;0.99;100.00
13015;BME280;6573;57.696;11.950;2022-12-07T09:42:27;100380.94;;;0.90;100.00
13015;BME280;6573;57.696;11.950;2022-12-07T09:44:57;100396.81;;;1.02;100.00
13015;BME280;6573;57.696;11.950;2022-12-07T09:47:28;100384.53;;;0.95;100.00
13015;BME280;6573;57.696;11.950;2022-12-07T09:50:00;100412.34;;;1.02;100.00
13015;BME280;6573;57.696;11.950;2022-12-07T09:52:33;100410.75;;;1.07;100.00
13015;BME280;6573;57.696;11.950;2022-12-07T09:55:10;100364.69;;;0.66;100.00
13015;BME280;6573;57.696;11.950;2022-12-07T09:57:39;100412.19;;;0.96;100.00
13015;BME280;6573;57.696;11.950;2022-12-07T10:00:13;100420.88;;;0.98;100.00
13015;BME280;6573;57.696;11.950;2022-12-07T10:02:44;100427.88;;;1.02;100.00
13015;BME280;6573;57.696;11.950;2022-12-07T10:05:16;100426.16;;;1.01;100.00
13015;BME280;6573;57.696;11.950;2022-12-07T10:07:50;100429.75;;;1.06;100.00
13015;BME280;6573;57.696;11.950;2022-12-07T10:10:23;100417.28;;;0.93;100.00
13015;BME280;6573;57.696;11.950;2022-12-07T10:12:57;100436.84;;;1.13;100.00
13015;BME280;6573;57.696;11.950;2022-12-07T10:15:48;100455.56;;;1.03;100.00
13015;BME280;6573;57.696;11.950;2022-12-07T10:18:21;100441.69;;;1.01;100.00
13015;BME280;6573;57.696;11.950;2022-12-07T10:21:12;100436.41;;;0.98;100.00
13015;BME280;6573;57.696;11.950;2022-12-07T10:23:43;100441.03;;;1.08;100.00
13015;BME280;6573;57.696;11.950;2022-12-07T10:26:30;100455.56;;;1.03;100.00
13015;BME280;6573;57.696;11.950;2022-12-07T10:29:00;100461.69;;;1.07;100.00
13015;BME280;6573;57.696;11.950;2022-12-07T10:31:29;100449.75;;;1.12;100.00
13015;BME280;6573;57.696;11.950;2022-12-07T10:34:01;100460.88;;;1.09;100.00
13015;BME280;6573;57.696;11.950;2022-12-07T10:36:35;100458.78;;;0.96;100.00
13015;BME280;6573;57.696;11.950;2022-12-07T10:39:13;100469.22;;;0.99;100.00
13015;BME280;6573;57.696;11.950;2022-12-07T10:41:53;100476.00;;;0.94;100.00
13015;BME280;6573;57.696;11.950;2022-12-07T10:44:24;100474.22;;;0.93;100.00
13015;BME280;6573;57.696;11.950;2022-12-07T10:47:14;100487.09;;;0.90;100.00
13015;BME280;6573;57.696;11.950;2022-12-07T10:50:22;100485.88;;;0.79;100.00
13015;BME280;6573;57.696;11.950;2022-12-07T10:53:11;100487.94;;;0.89;100.00
13015;BME280;6573;57.696;11.950;2022-12-07T10:55:56;100496.63;;;0.91;100.00
13015;BME280;6573;57.696;11.950;2022-12-07T10:58:46;100475.59;;;0.82;100.00
13015;BME280;6573;57.696;11.950;2022-12-07T11:01:23;100498.91;;;0.82;100.00
13015;BME280;6573;57.696;11.950;2022-12-07T11:04:17;100449.72;;;0.54;100.00
13015;BME280;6573;57.696;11.950;2022-12-07T11:06:52;100506.53;;;0.78;100.00
13015;BME280;6573;57.696;11.950;2022-12-07T11:12:50;100500.94;;;0.64;100.00
13015;BME280;6573;57.696;11.950;2022-12-07T11:15:24;100515.75;;;0.70;100.00
13015;BME280;6573;57.696;11.950;2022-12-07T11:18:00;100516.53;;;0.67;100.00
13015;BME280;6573;57.696;11.950;2022-12-07T11:20:39;100522.72;;;0.71;100.00
13015;BME280;6573;57.696;11.950;2022-12-07T11:23:18;100529.09;;;0.55;100.00
13015;BME280;6573;57.696;11.950;2022-12-07T11:25:54;100537.56;;;0.49;100.00
13015;BME280;6573;57.696;11.950;2022-12-07T11:28:33;100533.94;;;0.44;100.00
13015;BME280;6573;57.696;11.950;2022-12-07T11:31:13;100535.44;;;0.38;100.00
13015;BME280;6573;57.696;11.950;2022-12-07T11:33:53;100534.34;;;0.31;100.00
13015;BME280;6573;57.696;11.950;2022-12-07T11:36:37;100553.88;;;0.47;100.00
13015;BME280;6573;57.696;11.950;2022-12-07T11:39:15;100548.59;;;0.44;100.00
13015;BME280;6573;57.696;11.950;2022-12-07T11:41:50;100543.41;;;0.44;100.00
13015;BME280;6573;57.696;11.950;2022-12-07T11:44:27;100563.59;;;0.29;100.00
13015;BME280;6573;57.696;11.950;2022-12-07T11:47:05;100550.44;;;0.23;100.00
13015;BME280;6573;57.696;11.950;2022-12-07T11:49:44;100574.84;;;0.31;100.00
13015;BME280;6573;57.696;11.950;2022-12-07T11:52:20;100574.28;;;0.14;100.00
13015;BME280;6573;57.696;11.950;2022-12-07T11:54:52;100582.31;;;0.22;100.00
13015;BME280;6573;57.696;11.950;2022-12-07T11:57:28;100594.31;;;0.20;100.00
13015;BME280;6573;57.696;11.950;2022-12-07T12:00:11;100581.28;;;0.17;100.00
13015;BME280;6573;57.696;11.950;2022-12-07T12:02:46;100570.81;;;0.14;100.00
13015;BME280;6573;57.696;11.950;2022-12-07T12:05:19;100574.28;;;0.14;100.00
13015;BME280;6573;57.696;11.950;2022-12-07T12:07:58;100571.09;;;0.21;100.00
13015;BME280;6573;57.696;11.950;2022-12-07T12:10:56;100585.53;;;0.15;100.00
13015;BME280;6573;57.696;11.950;2022-12-07T12:14:01;100590.34;;;0.06;100.00
13015;BME280;6573;57.696;11.950;2022-12-07T12:17:18;100591.25;;;0.06;100.00
13015;BME280;6573;57.696;11.950;2022-12-07T12:20:00;100591.19;;;0.05;100.00
13015;BME280;6573;57.696;11.950;2022-12-07T12:22:34;100570.66;;;-0.15;100.00
13015;BME280;6573;57.696;11.950;2022-12-07T12:25:07;100586.41;;;-0.09;100.00
13015;BME280;6573;57.696;11.950;2022-12-07T12:27:46;100608.41;;;0.04;100.00
13015;BME280;6573;57.696;11.950;2022-12-07T12:30:30;100604.22;;;0.08;100.00
13015;BME280;6573;57.696;11.950;2022-12-07T12:33:20;100605.53;;;-0.04;100.00
13015;BME280;6573;57.696;11.950;2022-12-07T12:36:18;100609.19;;;0.02;100.00
13015;BME280;6573;57.696;11.950;2022-12-07T12:38:49;100597.28;;;0.07;100.00
13015;BME280;6573;57.696;11.950;2022-12-07T12:41:52;100597.06;;;0.00;100.00
13015;BME280;6573;57.696;11.950;2022-12-07T12:47:52;100589.91;;;-0.07;100.00
13015;BME280;6573;57.696;11.950;2022-12-07T12:50:26;100590.22;;;0.03;100.00
13015;BME280;6573;57.696;11.950;2022-12-07T12:53:16;100595.75;;;-0.12;100.00
13015;BME280;6573;57.696;11.950;2022-12-07T12:59:19;100589.91;;;-0.07;100.00
13015;BME280;6573;57.696;11.950;2022-12-07T13:01:51;100587.88;;;0.09;100.00
13015;BME280;6573;57.696;11.950;2022-12-07T13:04:38;100586.84;;;0.04;100.00
13015;BME280;6573;57.696;11.950;2022-12-07T13:07:13;100583.31;;;0.02;100.00
13015;BME280;6573;57.696;11.950;2022-12-07T13:10:02;100583.09;;;-0.05;100.00
13015;BME280;6573;57.696;11.950;2022-12-07T13:12:31;100585.78;;;-0.02;100.00
13015;BME280;6573;57.696;11.950;2022-12-07T13:15:00;100604.44;;;0.14;100.00
13015;BME280;6573;57.696;11.950;2022-12-07T13:20:49;100602.59;;;0.10;100.00
13015;BME280;6573;57.696;11.950;2022-12-07T13:23:20;100603.13;;;0.25;100.00
13015;BME280;6573;57.696;11.950;2022-12-07T13:26:15;100609.59;;;0.14;100.00
13015;BME280;6573;57.696;11.950;2022-12-07T13:28:47;100603.44;;;0.10;100.00
13015;BME280;6573;57.696;11.950;2022-12-07T13:31:26;100599.50;;;0.20;100.00
13015;BME280;6573;57.696;11.950;2022-12-07T13:33:56;100616.97;;;0.27;100.00
13015;BME280;6573;57.696;11.950;2022-12-07T13:36:33;100618.41;;;0.19;100.00